createdAt,value
2023-02-21T00:00:34.504Z,893
2023-02-21T00:01:34.478Z,892.94
2023-02-21T00:02:34.504Z,893.07
2023-02-21T00:03:34.483Z,893
2023-02-21T00:04:34.522Z,892.74
2023-02-21T00:05:34.509Z,892.28
2023-02-21T00:06:34.511Z,892.89
2023-02-21T00:07:34.483Z,892.25
2023-02-21T00:08:34.490Z,892.94
2023-02-21T00:09:34.524Z,893.13
2023-02-21T00:10:34.495Z,892.39
2023-02-21T00:11:34.498Z,892.76
2023-02-21T00:12:34.524Z,892.39
2023-02-21T00:13:34.533Z,892.26
2023-02-21T00:14:34.518Z,892.13
2023-02-21T00:15:34.504Z,891.91
2023-02-21T00:16:34.550Z,891.65
2023-02-21T00:17:34.512Z,891.14
2023-02-21T00:18:34.502Z,891.17
2023-02-21T00:19:34.532Z,891.08
2023-02-21T00:20:34.507Z,890.51
2023-02-21T00:21:34.513Z,890.16
2023-02-21T00:22:34.509Z,889.78
2023-02-21T00:23:34.514Z,889.65
2023-02-21T00:24:34.558Z,889.25
2023-02-21T00:25:34.514Z,888.72
2023-02-21T00:26:34.528Z,888.57
2023-02-21T00:27:34.519Z,888.34
2023-02-21T00:28:34.552Z,887.77
2023-02-21T00:29:34.548Z,887.28
2023-02-21T00:30:34.643Z,887.01
2023-02-21T00:31:37.371Z,886.62
2023-02-21T00:32:34.662Z,886.02
2023-02-21T00:33:34.576Z,885.19
2023-02-21T00:34:34.554Z,883.38
2023-02-21T00:35:34.550Z,882.52
2023-02-21T00:36:34.537Z,881.22
2023-02-21T00:37:34.529Z,879.53
2023-02-21T00:38:34.530Z,878.54
2023-02-21T00:39:34.562Z,876.56
2023-02-21T00:40:34.532Z,875.08
2023-02-21T00:41:34.537Z,873.31
2023-02-21T00:42:34.594Z,871.65
2023-02-21T00:43:36.635Z,869.88
2023-02-21T00:44:34.587Z,868.7
2023-02-21T00:45:34.542Z,866.95
2023-02-21T00:46:34.543Z,866.19
2023-02-21T00:47:34.550Z,864.88
2023-02-21T00:48:34.544Z,864.32
2023-02-21T00:49:34.575Z,863.1
2023-02-21T00:50:34.557Z,861.33
2023-02-21T00:51:34.564Z,859.48
2023-02-21T00:52:34.549Z,857.21
2023-02-21T00:53:34.551Z,854.6
2023-02-21T00:54:34.587Z,852.19
2023-02-21T00:55:34.551Z,848.86
2023-02-21T00:56:34.559Z,846.84
2023-02-21T00:57:34.576Z,844.13
2023-02-21T00:58:34.558Z,841.44
2023-02-21T00:59:34.589Z,839.21
2023-02-21T01:00:34.599Z,836.27
2023-02-21T01:01:34.642Z,834.15
2023-02-21T01:02:34.576Z,831.5
2023-02-21T01:03:34.573Z,829.13
2023-02-21T01:04:34.634Z,826.36
2023-02-21T01:05:34.569Z,824.92
2023-02-21T01:06:34.582Z,823.38
2023-02-21T01:07:34.592Z,821.32
2023-02-21T01:08:34.583Z,820.07
2023-02-21T01:09:34.621Z,819.08
2023-02-21T01:10:34.647Z,817.41
2023-02-21T01:11:34.591Z,816.29
2023-02-21T01:12:34.589Z,814.73
2023-02-21T01:13:34.589Z,812.46
2023-02-21T01:14:34.657Z,810.87
2023-02-21T01:15:34.627Z,808.96
2023-02-21T01:16:34.620Z,806.19
2023-02-21T01:17:34.605Z,804.45
2023-02-21T01:18:34.598Z,802.81
2023-02-21T01:19:34.628Z,801.74
2023-02-21T01:20:34.624Z,799.97
2023-02-21T01:21:34.603Z,799.02
2023-02-21T01:22:34.603Z,798.01
2023-02-21T01:23:34.607Z,796.13
2023-02-21T01:24:34.635Z,794.34
2023-02-21T01:25:34.624Z,793.11
2023-02-21T01:26:34.604Z,792.16
2023-02-21T01:27:34.681Z,790.45
2023-02-21T01:28:34.656Z,787.92
2023-02-21T01:29:34.640Z,786.49
2023-02-21T01:30:34.651Z,784.65
2023-02-21T01:31:34.720Z,782.74
2023-02-21T01:32:34.660Z,779.74
2023-02-21T01:33:34.615Z,778.07
2023-02-21T01:34:36.181Z,775.54
2023-02-21T01:35:34.624Z,773.37
2023-02-21T01:36:34.625Z,772
2023-02-21T01:37:34.628Z,769.87
2023-02-21T01:38:34.626Z,767.79
2023-02-21T01:39:34.650Z,766.22
2023-02-21T01:40:34.637Z,764.73
2023-02-21T01:41:34.642Z,762.98
2023-02-21T01:42:34.673Z,760.87
2023-02-21T01:43:34.630Z,759.55
2023-02-21T01:44:34.650Z,758.87
2023-02-21T01:45:34.644Z,758.17
2023-02-21T01:46:34.644Z,757.11
2023-02-21T01:47:34.632Z,756.21
2023-02-21T01:48:34.672Z,755.34
2023-02-21T01:49:34.664Z,754.8
2023-02-21T01:50:34.644Z,754.2
2023-02-21T01:51:34.649Z,753.45
2023-02-21T01:52:34.650Z,752.17
2023-02-21T01:53:37.715Z,752.08
2023-02-21T01:54:34.670Z,751.33
2023-02-21T01:55:34.646Z,750.33
2023-02-21T01:56:34.652Z,750.07
2023-02-21T01:57:34.655Z,749.92
2023-02-21T01:58:34.838Z,749.55
2023-02-21T01:59:34.731Z,749.63
2023-02-21T02:00:34.656Z,748.62
2023-02-21T02:01:34.768Z,747.86
2023-02-21T02:02:34.661Z,745.46
2023-02-21T02:03:34.723Z,743.07
2023-02-21T02:04:36.579Z,740.61
2023-02-21T02:05:34.662Z,737.76
2023-02-21T02:06:34.828Z,735.01
2023-02-21T02:07:34.662Z,732.11
2023-02-21T02:08:34.667Z,729.81
2023-02-21T02:09:34.701Z,727.11
2023-02-21T02:10:34.671Z,726.44
2023-02-21T02:11:34.673Z,726.27
2023-02-21T02:12:34.677Z,726.1
2023-02-21T02:13:34.670Z,724.79
2023-02-21T02:14:34.666Z,722.99
2023-02-21T02:15:37.484Z,721.36
2023-02-21T02:16:34.675Z,718.54
2023-02-21T02:17:34.775Z,716.79
2023-02-21T02:18:34.670Z,714.87
2023-02-21T02:19:34.699Z,713.31
2023-02-21T02:20:34.717Z,711.05
2023-02-21T02:21:34.681Z,709.51
2023-02-21T02:22:34.692Z,708.39
2023-02-21T02:23:34.686Z,706.62
2023-02-21T02:24:34.684Z,705.04
2023-02-21T02:25:34.829Z,704.11
2023-02-21T02:26:34.678Z,701.99
2023-02-21T02:27:34.806Z,700.46
2023-02-21T02:28:34.690Z,698.31
2023-02-21T02:29:34.684Z,698.15
2023-02-21T02:30:34.739Z,696.35
2023-02-21T02:31:34.830Z,694.97
2023-02-21T02:32:34.709Z,693.26
2023-02-21T02:33:34.696Z,691.9
2023-02-21T02:34:34.691Z,690.78
2023-02-21T02:35:34.695Z,689.62
2023-02-21T02:36:34.742Z,688.29
2023-02-21T02:37:34.701Z,686.31
2023-02-21T02:38:34.699Z,685.08
2023-02-21T02:39:34.697Z,683.5
2023-02-21T02:40:34.705Z,683.73
2023-02-21T02:41:34.706Z,683.55
2023-02-21T02:42:34.707Z,683.71
2023-02-21T02:43:34.711Z,683.86
2023-02-21T02:44:34.705Z,683.67
2023-02-21T02:45:34.709Z,683.64
2023-02-21T02:46:34.789Z,684.05
2023-02-21T02:47:34.724Z,683.51
2023-02-21T02:48:34.710Z,684.23
2023-02-21T02:49:34.706Z,683.54
2023-02-21T02:50:34.704Z,682.82
2023-02-21T02:51:34.707Z,683.19
2023-02-21T02:52:34.767Z,684.2
2023-02-21T02:53:34.706Z,683.36
2023-02-21T02:54:34.732Z,683.7
2023-02-21T02:55:34.711Z,683.41
2023-02-21T02:56:34.710Z,682.51
2023-02-21T02:57:34.723Z,680.84
2023-02-21T02:58:37.814Z,680.04
2023-02-21T02:59:34.712Z,678.11
2023-02-21T03:00:34.713Z,676.77
2023-02-21T03:01:34.766Z,676.08
2023-02-21T03:02:34.715Z,674.86
2023-02-21T03:03:34.992Z,673.38
2023-02-21T03:04:34.738Z,671.53
2023-02-21T03:05:34.726Z,670.03
2023-02-21T03:06:34.722Z,667.24
2023-02-21T03:07:36.490Z,665
2023-02-21T03:08:34.756Z,663.32
2023-02-21T03:09:34.724Z,662.3
2023-02-21T03:10:34.729Z,660.57
2023-02-21T03:11:34.733Z,660.61
2023-02-21T03:12:34.730Z,660.06
2023-02-21T03:13:34.737Z,660.05
2023-02-21T03:14:34.732Z,659.6
2023-02-21T03:15:34.742Z,659.65
2023-02-21T03:16:34.765Z,660.14
2023-02-21T03:17:34.738Z,659.22
2023-02-21T03:18:34.746Z,659.63
2023-02-21T03:19:34.739Z,659.83
2023-02-21T03:20:34.744Z,660.7
2023-02-21T03:21:34.784Z,661.39
2023-02-21T03:22:34.763Z,661.38
2023-02-21T03:23:34.756Z,662.57
2023-02-21T03:24:34.776Z,663.25
2023-02-21T03:25:34.831Z,663.9
2023-02-21T03:26:34.753Z,664.65
2023-02-21T03:27:34.755Z,665.07
2023-02-21T03:28:34.767Z,665.84
2023-02-21T03:29:34.753Z,666.19
2023-02-21T03:30:34.782Z,667.63
2023-02-21T03:31:34.873Z,666.59
2023-02-21T03:32:34.760Z,667.53
2023-02-21T03:33:34.761Z,667.89
2023-02-21T03:34:34.774Z,668.55
2023-02-21T03:35:34.781Z,669.12
2023-02-21T03:36:34.774Z,669.3
2023-02-21T03:37:34.768Z,670.09
2023-02-21T03:38:34.779Z,670.96
2023-02-21T03:39:34.779Z,671.43
2023-02-21T03:40:34.816Z,673.41
2023-02-21T03:41:34.879Z,675.29
2023-02-21T03:42:34.772Z,677.02
2023-02-21T03:43:34.772Z,679.19
2023-02-21T03:44:34.779Z,680.33
2023-02-21T03:45:34.788Z,682.76
2023-02-21T03:46:34.878Z,684.76
2023-02-21T03:47:34.797Z,686.78
2023-02-21T03:48:34.779Z,688.28
2023-02-21T03:49:34.787Z,690.3
2023-02-21T03:50:34.782Z,692.09
2023-02-21T03:51:34.797Z,693.78
2023-02-21T03:52:34.789Z,696.26
2023-02-21T03:53:34.792Z,697.94
2023-02-21T03:54:34.787Z,699.9
2023-02-21T03:55:34.795Z,701.51
2023-02-21T03:56:41.812Z,703.13
2023-02-21T03:57:34.800Z,704.15
2023-02-21T03:58:35.614Z,704.64
2023-02-21T03:59:34.894Z,705.49
2023-02-21T04:00:34.810Z,706.32
2023-02-21T04:01:34.806Z,707.46
2023-02-21T04:02:34.802Z,708.55
2023-02-21T04:03:34.806Z,710.75
2023-02-21T04:04:34.809Z,712.29
2023-02-21T04:05:34.852Z,713.55
2023-02-21T04:06:34.826Z,713.5
2023-02-21T04:07:34.811Z,714.53
2023-02-21T04:08:34.818Z,715.04
2023-02-21T04:09:34.823Z,715.8
2023-02-21T04:10:38.170Z,716.87
2023-02-21T04:11:34.817Z,717.4
2023-02-21T04:12:34.845Z,718.04
2023-02-21T04:13:34.817Z,719.38
2023-02-21T04:14:34.899Z,720.67
2023-02-21T04:15:34.831Z,721.29
2023-02-21T04:16:34.887Z,722.59
2023-02-21T04:17:34.819Z,724.57
2023-02-21T04:18:36.729Z,725.83
2023-02-21T04:19:35.061Z,728.23
2023-02-21T04:20:37.598Z,730.19
2023-02-21T04:21:34.826Z,731.11
2023-02-21T04:22:34.841Z,733.29
2023-02-21T04:23:34.857Z,734.38
2023-02-21T04:24:34.833Z,736.01
2023-02-21T04:25:35.082Z,737.23
2023-02-21T04:26:34.995Z,738.53
2023-02-21T04:27:34.868Z,739.18
2023-02-21T04:28:34.869Z,740.51
2023-02-21T04:29:34.837Z,742.42
2023-02-21T04:30:35.098Z,743.59
2023-02-21T04:31:38.079Z,743.75
2023-02-21T04:32:34.885Z,744.28
2023-02-21T04:33:34.849Z,744.91
2023-02-21T04:34:34.842Z,745.33
2023-02-21T04:35:34.855Z,745.77
2023-02-21T04:36:34.859Z,746.3
2023-02-21T04:37:34.852Z,746.45
2023-02-21T04:38:34.847Z,747.18
2023-02-21T04:39:34.852Z,747.36
2023-02-21T04:40:34.863Z,747.4
2023-02-21T04:41:34.912Z,747.86
2023-02-21T04:42:37.734Z,749.13
2023-02-21T04:43:34.873Z,749.02
2023-02-21T04:44:34.889Z,749.49
2023-02-21T04:45:34.894Z,750.1
2023-02-21T04:46:34.864Z,751.56
2023-02-21T04:47:34.882Z,751.84
2023-02-21T04:48:34.862Z,752.76
2023-02-21T04:49:34.907Z,753.86
2023-02-21T04:50:34.872Z,754.87
2023-02-21T04:51:34.876Z,755.64
2023-02-21T04:52:34.877Z,757.22
2023-02-21T04:53:34.870Z,758.29
2023-02-21T04:54:34.877Z,759.56
2023-02-21T04:55:34.885Z,761.4
2023-02-21T04:56:34.978Z,762.49
2023-02-21T04:57:34.891Z,763.87
2023-02-21T04:58:44.648Z,765.24
2023-02-21T04:59:34.875Z,765.82
2023-02-21T05:00:34.898Z,767.55
2023-02-21T05:01:34.955Z,768.9
2023-02-21T05:02:34.884Z,769.18
2023-02-21T05:03:34.909Z,769.66
2023-02-21T05:04:34.984Z,770.38
2023-02-21T05:05:34.883Z,771.21
2023-02-21T05:06:34.936Z,771.49
2023-02-21T05:07:34.885Z,772.24
2023-02-21T05:08:34.889Z,772.82
2023-02-21T05:09:34.886Z,773.11
2023-02-21T05:10:45.068Z,774.21
2023-02-21T05:11:34.925Z,774.67
2023-02-21T05:12:34.914Z,775.12
2023-02-21T05:13:34.893Z,775.27
2023-02-21T05:14:34.890Z,774.96
2023-02-21T05:15:34.911Z,774.73
2023-02-21T05:16:34.928Z,775.21
2023-02-21T05:17:34.909Z,775.62
2023-02-21T05:18:34.930Z,776.13
2023-02-21T05:19:34.892Z,776.81
2023-02-21T05:20:34.945Z,777.64
2023-02-21T05:21:34.894Z,777.25
2023-02-21T05:22:34.922Z,776.95
2023-02-21T05:23:34.919Z,776.64
2023-02-21T05:24:34.911Z,775.93
2023-02-21T05:25:38.569Z,775.22
2023-02-21T05:26:34.914Z,774.72
2023-02-21T05:27:35.007Z,774.24
2023-02-21T05:28:34.926Z,773.98
2023-02-21T05:29:34.930Z,773.47
2023-02-21T05:30:35.120Z,773.96
2023-02-21T05:31:35.044Z,773.79
2023-02-21T05:32:35.017Z,774.66
2023-02-21T05:33:34.918Z,774.99
2023-02-21T05:34:34.944Z,775.91
2023-02-21T05:35:34.937Z,776.21
2023-02-21T05:36:34.913Z,777.17
2023-02-21T05:37:34.931Z,778.08
2023-02-21T05:38:34.944Z,778.45
2023-02-21T05:39:35.001Z,779.06
2023-02-21T05:40:34.935Z,779.8
2023-02-21T05:41:34.992Z,779.82
2023-02-21T05:42:34.937Z,779.5
2023-02-21T05:43:34.935Z,779.84
2023-02-21T05:44:34.931Z,780.08
2023-02-21T05:45:34.928Z,780.36
2023-02-21T05:46:34.935Z,780.99
2023-02-21T05:47:34.963Z,780.81
2023-02-21T05:48:34.955Z,781.34
2023-02-21T05:49:34.933Z,782.16
2023-02-21T05:50:34.932Z,782.87
2023-02-21T05:51:34.948Z,783.74
2023-02-21T05:52:34.935Z,784.62
2023-02-21T05:53:34.937Z,785.77
2023-02-21T05:54:34.969Z,786.85
2023-02-21T05:55:34.939Z,787.48
2023-02-21T05:56:34.950Z,787.97
2023-02-21T05:57:34.950Z,788.76
2023-02-21T05:58:34.951Z,790.56
2023-02-21T05:59:34.947Z,791.42
2023-02-21T06:00:34.951Z,792.45
2023-02-21T06:01:34.963Z,793.34
2023-02-21T06:02:34.982Z,793.57
2023-02-21T06:03:35.022Z,794.63
2023-02-21T06:04:34.980Z,794.94
2023-02-21T06:05:34.953Z,795.39
2023-02-21T06:06:34.956Z,795.63
2023-02-21T06:07:34.950Z,795.53
2023-02-21T06:08:34.961Z,795.47
2023-02-21T06:09:34.981Z,795.58
2023-02-21T06:10:34.968Z,795.72
2023-02-21T06:11:34.969Z,796.19
2023-02-21T06:12:34.955Z,796.67
2023-02-21T06:13:34.957Z,796.53
2023-02-21T06:14:34.987Z,797.43
2023-02-21T06:15:34.995Z,796.94
2023-02-21T06:16:34.974Z,797.44
2023-02-21T06:17:34.963Z,798.36
2023-02-21T06:18:34.994Z,798.59
2023-02-21T06:19:34.969Z,799.49
2023-02-21T06:20:35.007Z,800.07
2023-02-21T06:21:34.975Z,800.85
2023-02-21T06:22:34.976Z,801.94
2023-02-21T06:23:35.034Z,802.3
2023-02-21T06:24:34.979Z,803.66
2023-02-21T06:25:35.004Z,804.11
2023-02-21T06:26:34.974Z,805.4
2023-02-21T06:27:34.996Z,806
2023-02-21T06:28:34.984Z,807.52
2023-02-21T06:29:34.987Z,808.08
2023-02-21T06:30:36.031Z,808.63
2023-02-21T06:31:35.098Z,810.08
2023-02-21T06:32:34.992Z,810.4
2023-02-21T06:33:35.067Z,811.43
2023-02-21T06:34:35.008Z,812.31
2023-02-21T06:35:34.995Z,813.12
2023-02-21T06:36:35.036Z,814.17
2023-02-21T06:37:34.993Z,814.43
2023-02-21T06:38:34.999Z,815.68
2023-02-21T06:39:35.000Z,816.57
2023-02-21T06:40:35.014Z,817.86
2023-02-21T06:41:35.065Z,819.15
2023-02-21T06:42:35.049Z,819.9
2023-02-21T06:43:35.410Z,820.72
2023-02-21T06:44:35.005Z,821.86
2023-02-21T06:45:35.114Z,822.35
2023-02-21T06:46:35.120Z,823.36
2023-02-21T06:47:38.119Z,823.53
2023-02-21T06:48:35.050Z,823.93
2023-02-21T06:49:35.020Z,823.88
2023-02-21T06:50:35.074Z,824.41
2023-02-21T06:51:35.204Z,824.43
2023-02-21T06:52:35.040Z,824.6
2023-02-21T06:53:35.018Z,824.56
2023-02-21T06:54:35.044Z,825.01
2023-02-21T06:55:35.026Z,825.13
2023-02-21T06:56:35.057Z,825.18
2023-02-21T06:57:35.053Z,825.29
2023-02-21T06:58:37.798Z,825.79
2023-02-21T06:59:35.051Z,826.92
2023-02-21T07:00:35.035Z,827.28
2023-02-21T07:01:35.128Z,827.57
2023-02-21T07:02:35.042Z,827.86
2023-02-21T07:03:35.054Z,828.61
2023-02-21T07:04:35.105Z,829.91
2023-02-21T07:05:35.054Z,830.16
2023-02-21T07:06:35.082Z,831.19
2023-02-21T07:07:35.060Z,832.32
2023-02-21T07:08:35.176Z,834.11
2023-02-21T07:09:38.072Z,835.94
2023-02-21T07:10:35.146Z,838.56
2023-02-21T07:11:35.080Z,844.49
2023-02-21T07:12:35.068Z,850.56
2023-02-21T07:13:35.052Z,857.83
2023-02-21T07:14:35.052Z,864.38
2023-02-21T07:15:35.101Z,869.51
2023-02-21T07:16:35.090Z,873.73
2023-02-21T07:17:35.079Z,874.22
2023-02-21T07:18:35.067Z,875.09
2023-02-21T07:19:35.077Z,876.27
2023-02-21T07:20:35.089Z,878.58
2023-02-21T07:21:35.094Z,884.95
2023-02-21T07:22:35.068Z,893.94
2023-02-21T07:23:35.069Z,904.87
2023-02-21T07:24:36.594Z,913.54
2023-02-21T07:25:35.151Z,920.69
2023-02-21T07:26:35.097Z,925.99
2023-02-21T07:27:35.060Z,928.88
2023-02-21T07:28:35.081Z,929.06
2023-02-21T07:29:35.075Z,929.08
2023-02-21T07:30:35.234Z,930.86
2023-02-21T07:31:35.245Z,932.76
2023-02-21T07:32:35.093Z,932.18
2023-02-21T07:33:35.078Z,933.27
2023-02-21T07:34:35.085Z,939.09
2023-02-21T07:35:35.341Z,946.53
2023-02-21T07:36:35.108Z,954.82
2023-02-21T07:37:35.086Z,962.3
2023-02-21T07:38:35.091Z,970.17
2023-02-21T07:39:35.189Z,977.96
2023-02-21T07:40:35.125Z,985.21
2023-02-21T07:41:35.211Z,992.09
2023-02-21T07:42:35.107Z,999.34
2023-02-21T07:43:35.119Z,1005.29
2023-02-21T07:44:35.099Z,1011.86
2023-02-21T07:45:35.111Z,1018.37
2023-02-21T07:46:35.210Z,1024.56
2023-02-21T07:47:35.190Z,1030.42
2023-02-21T07:48:35.104Z,1035.98
2023-02-21T07:49:35.101Z,1041.65
2023-02-21T07:50:35.153Z,1046.67
2023-02-21T07:51:35.179Z,1051.53
2023-02-21T07:52:38.200Z,1056.26
2023-02-21T07:53:35.158Z,1060.49
2023-02-21T07:54:35.150Z,1064.16
2023-02-21T07:55:35.130Z,1067.4
2023-02-21T07:56:35.226Z,1069.89
2023-02-21T07:57:35.212Z,1072.26
2023-02-21T07:58:35.124Z,1074.93
2023-02-21T07:59:35.122Z,1077.59
2023-02-21T08:00:35.957Z,1080.19
2023-02-21T08:01:35.265Z,1082.5
2023-02-21T08:02:35.231Z,1084.87
2023-02-21T08:03:38.286Z,1086.93
2023-02-21T08:04:35.205Z,1089.23
2023-02-21T08:05:35.140Z,1091.73
2023-02-21T08:06:35.171Z,1093.56
2023-02-21T08:07:35.144Z,1093.37
2023-02-21T08:08:35.138Z,1094.63
2023-02-21T08:09:35.156Z,1096.69
2023-02-21T08:10:35.168Z,1098.57
2023-02-21T08:11:35.172Z,1100.3
2023-02-21T08:12:35.202Z,1101.76
2023-02-21T08:13:35.326Z,1103.55
2023-02-21T08:14:35.171Z,1105.49
2023-02-21T08:15:35.236Z,1107.31
2023-02-21T08:16:35.264Z,1109
2023-02-21T08:17:35.346Z,1110.6
2023-02-21T08:18:35.175Z,1112.38
2023-02-21T08:19:35.297Z,1113.9
2023-02-21T08:20:35.245Z,1115.39
2023-02-21T08:21:35.382Z,1116.69
2023-02-21T08:22:35.174Z,1117.68
2023-02-21T08:23:35.174Z,1118.76
2023-02-21T08:24:35.182Z,1119.88
2023-02-21T08:25:35.178Z,1120.98
2023-02-21T08:26:35.203Z,1122.05
2023-02-21T08:27:35.165Z,1122.65
2023-02-21T08:28:35.202Z,1123.51
2023-02-21T08:29:35.184Z,1124.69
2023-02-21T08:30:35.252Z,1125.4
2023-02-21T08:31:35.251Z,1125.41
2023-02-21T08:32:35.183Z,1125.41
2023-02-21T08:33:35.193Z,1125.6
2023-02-21T08:34:35.178Z,1125.49
2023-02-21T08:35:35.262Z,1124.66
2023-02-21T08:36:35.312Z,1123.47
2023-02-21T08:37:35.210Z,1121.84
2023-02-21T08:38:35.194Z,1120.34
2023-02-21T08:39:35.188Z,1118.73
2023-02-21T08:40:35.205Z,1116.9
2023-02-21T08:41:35.216Z,1115.31
2023-02-21T08:42:35.202Z,1113.59
2023-02-21T08:43:35.216Z,1112.41
2023-02-21T08:44:35.217Z,1110.68
2023-02-21T08:45:35.208Z,1109.42
2023-02-21T08:46:35.266Z,1108.08
2023-02-21T08:47:35.211Z,1106.86
2023-02-21T08:48:35.195Z,1105.49
2023-02-21T08:49:35.315Z,1104.04
2023-02-21T08:50:35.209Z,1102.8
2023-02-21T08:51:35.295Z,1101.62
2023-02-21T08:52:35.214Z,1100.57
2023-02-21T08:53:35.214Z,1099.62
2023-02-21T08:54:35.209Z,1098.64
2023-02-21T08:55:35.221Z,1096.88
2023-02-21T08:56:35.231Z,1095.62
2023-02-21T08:57:35.227Z,1093.81
2023-02-21T08:58:37.633Z,1092.6
2023-02-21T08:59:35.327Z,1091.21
2023-02-21T09:00:35.302Z,1089.84
2023-02-21T09:01:35.336Z,1088.93
2023-02-21T09:02:35.244Z,1087.86
2023-02-21T09:03:35.324Z,1087.09
2023-02-21T09:04:35.293Z,1086.44
2023-02-21T09:05:35.253Z,1085.47
2023-02-21T09:06:35.331Z,1084.57
2023-02-21T09:07:35.234Z,1083.07
2023-02-21T09:08:35.286Z,1082.15
2023-02-21T09:09:35.258Z,1080.86
2023-02-21T09:10:35.322Z,1079.13
2023-02-21T09:11:35.299Z,1077.12
2023-02-21T09:12:35.292Z,1074.65
2023-02-21T09:13:35.266Z,1072.77
2023-02-21T09:14:38.313Z,1071.56
2023-02-21T09:15:35.243Z,1070.44
2023-02-21T09:16:35.384Z,1069.33
2023-02-21T09:17:35.250Z,1067.8
2023-02-21T09:18:35.279Z,1066.35
2023-02-21T09:19:35.292Z,1064.87
2023-02-21T09:20:35.340Z,1063.86
2023-02-21T09:21:35.290Z,1063.06
2023-02-21T09:22:35.282Z,1062.24
2023-02-21T09:23:35.260Z,1061.53
2023-02-21T09:24:35.266Z,1060.78
2023-02-21T09:25:38.392Z,1060.13
2023-02-21T09:26:35.299Z,1058.99
2023-02-21T09:27:35.374Z,1057.4
2023-02-21T09:28:35.272Z,1056.32
2023-02-21T09:29:45.239Z,1055.59
2023-02-21T09:30:35.334Z,1055.24
2023-02-21T09:31:35.310Z,1055.07
2023-02-21T09:32:35.331Z,1054.93
2023-02-21T09:33:35.286Z,1054.63
2023-02-21T09:34:35.307Z,1054.13
2023-02-21T09:35:35.293Z,1053.58
2023-02-21T09:36:36.722Z,1052.99
2023-02-21T09:37:35.291Z,1052.49
2023-02-21T09:38:35.366Z,1052
2023-02-21T09:39:35.292Z,1051.61
2023-02-21T09:40:35.302Z,1051.96
2023-02-21T09:41:35.299Z,1051.79
2023-02-21T09:42:35.304Z,1051.29
2023-02-21T09:43:35.302Z,1050.61
2023-02-21T09:44:35.376Z,1049.27
2023-02-21T09:45:35.320Z,1048.24
2023-02-21T09:46:35.381Z,1047.58
2023-02-21T09:47:35.342Z,1047.25
2023-02-21T09:48:35.331Z,1047.35
2023-02-21T09:49:35.326Z,1047.53
2023-02-21T09:50:35.363Z,1047.64
2023-02-21T09:51:35.405Z,1047.75
2023-02-21T09:52:35.321Z,1048.26
2023-02-21T09:53:35.363Z,1048.47
2023-02-21T09:54:35.328Z,1048.09
2023-02-21T09:55:35.317Z,1048.11
2023-02-21T09:56:35.316Z,1048.01
2023-02-21T09:57:35.405Z,1048.27
2023-02-21T09:58:35.407Z,1048.24
2023-02-21T09:59:35.369Z,1047.9
2023-02-21T10:00:35.327Z,1048.25
2023-02-21T10:01:35.432Z,1047.79
2023-02-21T10:02:35.321Z,1048.08
2023-02-21T10:03:35.337Z,1047.99
2023-02-21T10:04:35.813Z,1048.07
2023-02-21T10:05:35.400Z,1048.24
2023-02-21T10:06:35.336Z,1048.52
2023-02-21T10:07:35.363Z,1048.33
2023-02-21T10:08:35.335Z,1048.95
2023-02-21T10:09:35.340Z,1049.37
2023-02-21T10:10:35.351Z,1050.03
2023-02-21T10:11:35.361Z,1050.63
2023-02-21T10:12:35.358Z,1050.85
2023-02-21T10:13:35.342Z,1050.97
2023-02-21T10:14:35.346Z,1051.16
2023-02-21T10:15:35.373Z,1050.75
2023-02-21T10:16:35.412Z,1051.14
2023-02-21T10:17:35.351Z,1051.64
2023-02-21T10:18:35.350Z,1052.01
2023-02-21T10:19:38.159Z,1052.33
2023-02-21T10:20:35.350Z,1052.88
2023-02-21T10:21:35.360Z,1052.95
2023-02-21T10:22:35.365Z,1053.04
2023-02-21T10:23:35.386Z,1053.68
2023-02-21T10:24:35.375Z,1053.5
2023-02-21T10:25:35.359Z,1053.5
2023-02-21T10:26:35.359Z,1053.69
2023-02-21T10:27:35.375Z,1053.87
2023-02-21T10:28:35.364Z,1053.89
2023-02-21T10:29:35.417Z,1053.89
2023-02-21T10:30:38.244Z,1053.69
2023-02-21T10:31:35.509Z,1054.14
2023-02-21T10:32:35.390Z,1054.79
2023-02-21T10:33:35.377Z,1055.32
2023-02-21T10:34:35.384Z,1056.16
2023-02-21T10:35:35.406Z,1057.09
2023-02-21T10:36:35.387Z,1057.85
2023-02-21T10:37:35.498Z,1058.3
2023-02-21T10:38:35.380Z,1059.03
2023-02-21T10:39:35.390Z,1059.76
2023-02-21T10:40:35.386Z,1060.67
2023-02-21T10:41:38.234Z,1061.56
2023-02-21T10:42:35.385Z,1062.81
2023-02-21T10:43:35.415Z,1063.78
2023-02-21T10:44:35.428Z,1064.93
2023-02-21T10:45:35.432Z,1065.41
2023-02-21T10:46:35.412Z,1066.42
2023-02-21T10:47:35.403Z,1067.42
2023-02-21T10:48:35.397Z,1068.5
2023-02-21T10:49:35.437Z,1069.42
2023-02-21T10:50:35.418Z,1070.42
2023-02-21T10:51:35.437Z,1071.4
2023-02-21T10:52:36.557Z,1072.63
2023-02-21T10:53:35.501Z,1073.75
2023-02-21T10:54:35.609Z,1074.95
2023-02-21T10:55:35.410Z,1076.33
2023-02-21T10:56:35.427Z,1077.94
2023-02-21T10:57:35.409Z,1079.28
2023-02-21T10:58:35.418Z,1080.88
2023-02-21T10:59:35.435Z,1082.81
2023-02-21T11:00:35.426Z,1084.79
2023-02-21T11:01:35.506Z,1086.76
2023-02-21T11:02:35.478Z,1088.32
2023-02-21T11:03:35.435Z,1088.98
2023-02-21T11:04:35.660Z,1089.99
2023-02-21T11:05:35.458Z,1091.9
2023-02-21T11:06:35.458Z,1093.37
2023-02-21T11:07:35.463Z,1093.74
2023-02-21T11:08:35.451Z,1095.47
2023-02-21T11:09:35.435Z,1096.31
2023-02-21T11:10:35.443Z,1096.66
2023-02-21T11:11:37.139Z,1097.3
2023-02-21T11:12:35.445Z,1097.56
2023-02-21T11:13:35.447Z,1097.59
2023-02-21T11:14:35.464Z,1097.75
2023-02-21T11:15:35.489Z,1098.2
2023-02-21T11:16:35.454Z,1098.11
2023-02-21T11:17:35.486Z,1098.31
2023-02-21T11:18:35.455Z,1098.4
2023-02-21T11:19:35.461Z,1098.21
2023-02-21T11:20:35.460Z,1098.15
2023-02-21T11:21:35.467Z,1097.91
2023-02-21T11:22:35.674Z,1097.42
2023-02-21T11:23:35.502Z,1097.07
2023-02-21T11:24:38.524Z,1096.77
2023-02-21T11:25:35.461Z,1096.59
2023-02-21T11:26:35.464Z,1096.91
2023-02-21T11:27:35.499Z,1097.16
2023-02-21T11:28:35.483Z,1097.28
2023-02-21T11:29:35.466Z,1097.07
2023-02-21T11:30:35.536Z,1097.01
2023-02-21T11:31:35.645Z,1096.96
2023-02-21T11:32:35.478Z,1096.88
2023-02-21T11:33:35.497Z,1096.82
2023-02-21T11:34:35.484Z,1096.91
2023-02-21T11:35:35.491Z,1097.11
2023-02-21T11:36:35.489Z,1097.3
2023-02-21T11:37:35.488Z,1097.51
2023-02-21T11:38:35.500Z,1097.78
2023-02-21T11:39:35.541Z,1098.14
2023-02-21T11:40:35.547Z,1098.3
2023-02-21T11:41:38.552Z,1098.88
2023-02-21T11:42:35.494Z,1099.53
2023-02-21T11:43:35.506Z,1100.5
2023-02-21T11:44:35.527Z,1101.93
2023-02-21T11:45:35.499Z,1102.56
2023-02-21T11:46:35.500Z,1104.15
2023-02-21T11:47:35.656Z,1105.76
2023-02-21T11:48:35.514Z,1106.76
2023-02-21T11:49:35.530Z,1107.47
2023-02-21T11:50:35.509Z,1108.36
2023-02-21T11:51:35.533Z,1109.62
2023-02-21T11:52:38.529Z,1111.3
2023-02-21T11:53:35.512Z,1113.24
2023-02-21T11:54:35.518Z,1115.02
2023-02-21T11:55:35.568Z,1116.86
2023-02-21T11:56:35.524Z,1118.76
2023-02-21T11:57:35.549Z,1120.35
2023-02-21T11:58:35.530Z,1121.88
2023-02-21T11:59:35.524Z,1123.31
2023-02-21T12:00:35.523Z,1124.62
2023-02-21T12:01:35.547Z,1125.83
2023-02-21T12:02:35.572Z,1126.93
2023-02-21T12:03:38.357Z,1127.75
2023-02-21T12:04:36.552Z,1128.51
2023-02-21T12:05:35.634Z,1129.44
2023-02-21T12:06:35.541Z,1129.95
2023-02-21T12:07:35.560Z,1130.54
2023-02-21T12:08:35.550Z,1130.91
2023-02-21T12:09:35.536Z,1130.5
2023-02-21T12:10:35.562Z,1130.97
2023-02-21T12:11:35.574Z,1131.42
2023-02-21T12:12:35.623Z,1131.83
2023-02-21T12:13:35.582Z,1132.1
2023-02-21T12:14:35.565Z,1132.53
2023-02-21T12:15:35.613Z,1132.73
2023-02-21T12:16:35.636Z,1132.97
2023-02-21T12:17:35.582Z,1133.12
2023-02-21T12:18:35.595Z,1133.35
2023-02-21T12:19:35.562Z,1133.43
2023-02-21T12:20:35.594Z,1133.59
2023-02-21T12:21:35.576Z,1133.71
2023-02-21T12:22:35.586Z,1133.85